• Join FlightAware (Why Join?)
  • Login
  • US Flag 
07:35AM EDT


 

Airport Tracker/Info


-or-


 

Live Flight TrackerFlight Track Log ✈ N762NC ✈ 19-Oct-2013 ✈ KATL - KBNA

Flight Track Log - Related Links

Times and Time Zones

All times are in EDT time to prevent confusion due to time zone crossing. See the N762NC flight status page for this flight to view local times or setup timezone preferences in your user account.

Time Position Orientation Groundspeed Altitude Reporting Facility
EDT Latitude Longitude Course Direction KTS MPH feet Rate Location/Type
12:43PM 33.6667 -84.4833 348° North 210 242 3,000  Level Atlanta TRACON
12:44PM 33.6833 -84.5667 284° West 250 288 5,700 2,340 Climbing Atlanta TRACON
12:45PM 33.7667 -84.5833 351° North 294 338 8,000 1,740 Climbing Atlanta TRACON
12:47PM 34.0317 -84.7738 328° Northwest  Level Estimated
12:47PM 33.9664 -84.5797 North 330 380 11,600  Level Atlanta Center
12:48PM 34.1272 -84.7988 348° North  Level FlightAware Approximate
12:48PM 34.0494 -84.6406 329° Northwest 338 389 13,600  Level Atlanta Center
12:49PM 34.2227 -84.8239 348° North  Level FlightAware Approximate
12:49PM 34.1369 -84.6989 331° Northwest 349 402 15,300  Level Atlanta Center
12:50PM 34.2283 -84.7572 332° Northwest 366 421 17,200 1,800 Climbing Atlanta Center
12:51PM 34.3261 -84.8111 336° Northwest 378 435 19,000 1,500 Climbing Atlanta Center
12:52PM 34.4156 -84.8572 337° Northwest 383 441 20,300 1,380 Climbing Atlanta Center
12:53PM 34.5114 -84.9033 338° Northwest 377 434 21,800 1,320 Climbing Atlanta Center
12:54PM 34.6111 -84.9550 337° Northwest 377 434 23,000 -420 Climbing Atlanta Center
12:56PM 34.6988 -85.0053 335° Northwest  Level FlightAware Approximate
01:03PM 35.1913 -85.4565 311° West  Level FlightAware Approximate
01:04PM 35.2524 -85.5362 315° West  Level FlightAware Approximate
01:04PM 35.4361 -85.7244 311° West 394 453 17,900  Level Memphis Center
01:05PM 35.3161 -85.6133 315° West  Level FlightAware Approximate
01:06PM 35.3797 -85.6906 315° West  Level FlightAware Approximate
01:06PM 35.5498 -85.8801 311° West  Level Estimated
01:07PM 35.4433 -85.7679 315° West  Level FlightAware Approximate
01:08PM 35.5049 -85.8490 309° West  Level FlightAware Approximate
01:09PM 35.5625 -85.9345 311° West  Level FlightAware Approximate
01:13PM 35.9705 -86.4625 313° West  Level Estimated
01:14PM 36.0303 -86.5462 307° West  Level Estimated
01:15PM 36.0901 -86.6300 141° Southeast  Level Estimated
01:15PM 35.9683 -86.4739 141° Southeast 224 258 3,000  Level Memphis Center
01:16PM 36.1167 -86.6667 141° Southeast  Level FlightAware Approximate
01:16PM 36.0097 -86.5261 314° West 215 247 3,100  Level Memphis Center
01:17PM 36.1245 -86.6782 141° Southeast  Level Estimated
01:17PM 36.0486 -86.5756 314° West 207 238 2,700  Level Memphis Center
01:18PM 36.1245 -86.6782 141° Southeast  Level Estimated
01:18PM 36.0814 -86.6203 312° West 189 217 1,700  Level Memphis Center
01:19PM 36.1245 -86.6782 141° Southeast  Level Estimated
01:19PM 36.1094 -86.6550 315° West 155 178 1,000  Level Memphis Center
01:20PM 36.1245 -86.6782 141° Southeast  Level Estimated
01:20PM 36.1378 -86.6922 313° West 139 160 600  Level Memphis Center